createdAt,value
2023-03-18T00:01:27.111Z,5.33
2023-03-18T00:03:55.330Z,5.23
2023-03-18T00:06:23.665Z,7.10
2023-03-18T00:08:53.094Z,5.53
2023-03-18T00:11:22.375Z,5.83
2023-03-18T00:13:51.628Z,5.70
2023-03-18T00:16:21.236Z,6.17
2023-03-18T00:18:50.164Z,4.90
2023-03-18T00:21:19.004Z,6.10
2023-03-18T00:23:48.801Z,6.13
2023-03-18T00:26:18.224Z,5.87
2023-03-18T00:28:46.241Z,5.50
2023-03-18T00:31:14.296Z,6.50
2023-03-18T00:33:45.740Z,5.77
2023-03-18T00:36:14.745Z,5.67
2023-03-18T00:38:43.702Z,6.00
2023-03-18T00:41:16.166Z,7.37
2023-03-18T00:43:52.170Z,5.87
2023-03-18T00:46:22.371Z,7.57
2023-03-18T00:48:50.992Z,8.30
2023-03-18T00:51:20.682Z,5.23
2023-03-18T00:53:50.524Z,8.27
2023-03-18T00:56:19.448Z,5.37
2023-03-18T00:58:49.558Z,3.97
2023-03-18T01:01:18.150Z,6.10
2023-03-18T01:03:47.672Z,8.77
2023-03-18T01:06:20.013Z,4.60
2023-03-18T01:08:48.180Z,7.83
2023-03-18T01:11:16.308Z,6.20
2023-03-18T01:13:44.313Z,8.10
2023-03-18T01:16:14.211Z,8.20
2023-03-18T01:18:42.629Z,4.93
2023-03-18T01:21:12.071Z,7.83
2023-03-18T01:23:41.096Z,5.67
2023-03-18T01:26:09.724Z,7.73
2023-03-18T01:28:38.262Z,4.83
2023-03-18T01:31:08.143Z,5.33
2023-03-18T01:33:37.771Z,6.37
2023-03-18T01:36:06.457Z,5.73
2023-03-18T01:38:34.839Z,7.60
2023-03-18T01:41:03.488Z,8.23
2023-03-18T01:43:33.957Z,5.20
2023-03-18T01:46:23.479Z,5.13
2023-03-18T01:48:53.180Z,5.67
2023-03-18T01:51:22.526Z,4.78
2023-03-18T01:53:51.592Z,6.37
2023-03-18T01:56:21.142Z,7.20
2023-03-18T01:58:54.941Z,5.77
2023-03-18T02:01:27.938Z,6.23
2023-03-18T02:03:57.729Z,5.20
2023-03-18T02:06:26.471Z,4.27
2023-03-18T02:08:55.373Z,7.50
2023-03-18T02:13:52.521Z,5.13
2023-03-18T02:16:27.335Z,6.57
2023-03-18T02:19:00.671Z,8.13
2023-03-18T02:21:38.588Z,5.43
2023-03-18T02:24:19.892Z,6.87
2023-03-18T02:26:55.726Z,4.50
2023-03-18T02:29:26.728Z,5.87
2023-03-18T02:31:56.210Z,4.90
2023-03-18T02:34:26.100Z,4.83
2023-03-18T02:36:54.349Z,6.73
2023-03-18T02:39:23.239Z,6.43
2023-03-18T02:41:51.393Z,6.20
2023-03-18T02:44:20.589Z,7.20
2023-03-18T02:46:55.505Z,6.73
2023-03-18T02:49:26.187Z,9.10
2023-03-18T02:51:54.568Z,4.63
2023-03-18T02:54:24.581Z,5.87
2023-03-18T02:56:53.665Z,5.57
2023-03-18T02:59:22.637Z,5.17
2023-03-18T03:01:53.962Z,5.17
2023-03-18T03:04:24.523Z,5.93
2023-03-18T03:06:52.918Z,5.97
2023-03-18T03:09:21.780Z,6.17
2023-03-18T03:11:50.358Z,6.30
2023-03-18T03:14:18.864Z,10.80
2023-03-18T03:16:47.381Z,6.40
2023-03-18T03:19:17.017Z,4.90
2023-03-18T03:21:44.964Z,6.67
2023-03-18T03:24:12.968Z,5.43
2023-03-18T03:26:40.929Z,3.57
2023-03-18T03:29:08.886Z,10.10
2023-03-18T03:31:37.174Z,4.43
2023-03-18T03:34:05.253Z,3.57
2023-03-18T03:36:34.736Z,4.10
2023-03-18T03:39:04.102Z,4.13
2023-03-18T03:41:32.122Z,3.33
2023-03-18T03:44:00.102Z,6.67
2023-03-18T03:46:28.241Z,4.00
2023-03-18T03:48:56.396Z,8.53
2023-03-18T03:51:24.382Z,4.67
2023-03-18T03:53:59.520Z,6.23
2023-03-18T03:56:28.284Z,9.70
2023-03-18T03:58:56.448Z,10.67
2023-03-18T04:01:24.536Z,10.67
2023-03-18T04:03:52.590Z,22.53
2023-03-18T04:06:20.564Z,101.60
2023-03-18T04:08:48.588Z,115.77
2023-03-18T04:11:17.951Z,98.87
2023-03-18T04:13:45.876Z,98.60
2023-03-18T04:16:14.502Z,112.10
2023-03-18T04:18:42.538Z,133.13
2023-03-18T04:21:10.651Z,130.53
2023-03-18T04:23:38.597Z,128.80
2023-03-18T04:26:07.037Z,144.67
2023-03-18T04:28:36.378Z,157.50
2023-03-18T04:31:04.411Z,158.03
2023-03-18T04:33:32.477Z,150.97
2023-03-18T04:36:00.430Z,144.80
2023-03-18T04:38:28.743Z,169.67
2023-03-18T04:40:56.764Z,185.13
2023-03-18T04:43:24.714Z,109.23
2023-03-18T04:45:54.064Z,200.83
2023-03-18T04:48:22.412Z,193.97
2023-03-18T04:50:50.598Z,177.10
2023-03-18T04:53:18.608Z,169.30
2023-03-18T04:55:46.550Z,184.17
2023-03-18T04:58:14.553Z,182.73
2023-03-18T05:00:43.081Z,123.67
2023-03-18T05:03:12.666Z,146.80
2023-03-18T05:05:40.628Z,139.60
2023-03-18T05:08:08.590Z,149.90
2023-03-18T05:10:36.600Z,153.67
2023-03-18T05:13:04.717Z,183.93
2023-03-18T05:15:32.951Z,156.77
2023-03-18T05:18:01.536Z,166.73
2023-03-18T05:20:31.151Z,115.17
2023-03-18T05:22:59.237Z,129.73
2023-03-18T05:25:27.274Z,139.73
2023-03-18T05:27:55.777Z,80.37
2023-03-18T05:30:23.917Z,79.30
2023-03-18T05:32:52.753Z,67.63
2023-03-18T05:35:21.986Z,62.27
2023-03-18T05:37:51.674Z,64.43
2023-03-18T05:40:19.813Z,81.60
2023-03-18T05:42:55.761Z,64.40
2023-03-18T05:45:24.481Z,73.93
2023-03-18T05:47:52.877Z,64.03
2023-03-18T05:50:30.005Z,59.07
2023-03-18T05:52:59.334Z,67.60
2023-03-18T05:55:28.366Z,57.27
2023-03-18T05:57:56.656Z,63.60
2023-03-18T06:00:25.750Z,35.03
2023-03-18T06:02:53.922Z,37.50
2023-03-18T06:05:22.353Z,41.67
2023-03-18T06:07:50.578Z,58.30
2023-03-18T06:10:20.253Z,49.17
2023-03-18T06:12:48.198Z,42.90
2023-03-18T06:15:16.384Z,48.60
2023-03-18T06:17:44.354Z,43.33
2023-03-18T06:20:14.257Z,29.80
2023-03-18T06:22:43.827Z,29.63
2023-03-18T06:25:12.156Z,27.40
2023-03-18T06:27:41.996Z,27.10
2023-03-18T06:30:11.339Z,33.83
2023-03-18T06:32:40.205Z,30.17
2023-03-18T06:35:10.515Z,34.73
2023-03-18T06:37:39.297Z,39.90
2023-03-18T06:40:08.787Z,36.13
2023-03-18T06:42:37.598Z,31.77
2023-03-18T06:45:08.369Z,27.60
2023-03-18T06:47:36.375Z,26.80
2023-03-18T06:50:04.581Z,31.67
2023-03-18T06:52:32.802Z,33.83
2023-03-18T06:55:01.083Z,14.17
2023-03-18T06:57:29.085Z,6.20
2023-03-18T06:59:57.184Z,13.87
2023-03-18T07:02:27.395Z,8.67
2023-03-18T07:04:55.397Z,11.77
2023-03-18T07:07:24.700Z,14.90
2023-03-18T07:09:52.713Z,18.20
2023-03-18T07:12:20.761Z,13.93
2023-03-18T07:14:48.982Z,13.60
2023-03-18T07:17:16.965Z,11.50
2023-03-18T07:19:46.911Z,18.73
2023-03-18T07:22:15.757Z,23.83
2023-03-18T07:24:44.129Z,18.30
2023-03-18T07:27:14.814Z,22.63
2023-03-18T07:29:42.944Z,21.57
2023-03-18T07:32:10.957Z,20.00
2023-03-18T07:34:39.075Z,22.53
2023-03-18T07:37:08.616Z,7.90
2023-03-18T07:39:37.354Z,7.40
2023-03-18T07:42:05.569Z,6.23
2023-03-18T07:44:33.594Z,8.33
2023-03-18T07:47:01.679Z,7.47
2023-03-18T07:49:30.002Z,7.23
2023-03-18T07:51:58.001Z,7.07
2023-03-18T07:54:28.002Z,6.13
2023-03-18T07:56:56.029Z,7.17
2023-03-18T07:59:24.380Z,9.57
2023-03-18T08:01:52.551Z,6.77
2023-03-18T08:04:20.620Z,9.30
2023-03-18T08:06:49.377Z,8.07
2023-03-18T08:09:17.344Z,6.23
2023-03-18T08:11:47.003Z,6.13
2023-03-18T08:14:15.025Z,7.38
2023-03-18T08:16:43.328Z,7.25
2023-03-18T08:19:11.968Z,8.80
2023-03-18T08:21:40.471Z,5.72
2023-03-18T08:24:09.521Z,10.30
2023-03-18T08:26:37.688Z,7.40
2023-03-18T08:29:07.177Z,6.53
2023-03-18T08:31:35.365Z,13.52
2023-03-18T08:34:03.493Z,7.90
2023-03-18T08:36:32.229Z,13.20
2023-03-18T08:39:00.302Z,11.18
2023-03-18T08:41:28.616Z,7.13
2023-03-18T08:43:57.418Z,7.82
2023-03-18T08:46:26.910Z,9.13
2023-03-18T08:48:55.314Z,8.75
2023-03-18T08:51:23.545Z,7.55
2023-03-18T08:53:51.621Z,6.72
2023-03-18T08:56:20.158Z,7.80
2023-03-18T08:58:48.526Z,5.53
2023-03-18T09:01:16.718Z,9.90
2023-03-18T09:03:46.854Z,12.82
2023-03-18T09:06:15.270Z,6.85
2023-03-18T09:08:43.751Z,9.48
2023-03-18T09:11:13.882Z,14.20
2023-03-18T09:13:42.104Z,7.63
2023-03-18T09:16:10.696Z,5.85
2023-03-18T09:18:39.541Z,6.90
2023-03-18T09:21:09.045Z,7.50
2023-03-18T09:23:37.078Z,8.27
2023-03-18T09:26:05.412Z,7.95
2023-03-18T09:28:33.465Z,8.32
2023-03-18T09:31:01.737Z,13.27
2023-03-18T09:33:29.878Z,10.82
2023-03-18T09:35:57.897Z,6.75
2023-03-18T09:38:28.254Z,7.53
2023-03-18T09:41:04.002Z,10.38
2023-03-18T09:43:57.329Z,9.40
2023-03-18T09:46:34.405Z,9.00
2023-03-18T09:49:13.125Z,8.88
2023-03-18T09:51:50.180Z,6.57
2023-03-18T09:54:30.650Z,6.20
2023-03-18T09:56:59.421Z,12.10
2023-03-18T09:59:32.114Z,9.95
2023-03-18T10:02:01.760Z,9.80
2023-03-18T10:04:37.292Z,6.30
2023-03-18T10:07:12.754Z,9.60
2023-03-18T10:09:45.916Z,6.65
2023-03-18T10:12:19.547Z,10.63
2023-03-18T10:14:51.003Z,9.05
2023-03-18T10:17:22.735Z,10.18
2023-03-18T10:19:54.544Z,7.38
2023-03-18T10:22:37.828Z,8.52
2023-03-18T10:25:20.109Z,6.95
2023-03-18T10:28:00.781Z,5.97
2023-03-18T10:30:42.961Z,8.85
2023-03-18T10:33:18.950Z,7.38
2023-03-18T10:35:52.749Z,7.90
2023-03-18T10:38:26.455Z,10.55
2023-03-18T10:40:56.519Z,9.50
2023-03-18T10:43:28.721Z,10.95
2023-03-18T10:46:02.102Z,8.02
2023-03-18T10:48:34.110Z,10.10
2023-03-18T10:51:10.774Z,5.72
2023-03-18T10:53:45.366Z,7.40
2023-03-18T10:56:15.708Z,8.65
2023-03-18T10:58:44.779Z,7.35
2023-03-18T11:01:19.048Z,9.45
2023-03-18T11:03:52.800Z,9.90
2023-03-18T11:06:25.576Z,10.63
2023-03-18T11:09:04.742Z,10.25
2023-03-18T11:11:35.205Z,7.85
2023-03-18T11:14:05.468Z,6.93
2023-03-18T11:16:41.469Z,7.55
2023-03-18T11:19:30.034Z,9.63
2023-03-18T11:22:04.553Z,10.02
2023-03-18T11:24:42.532Z,8.23
2023-03-18T11:27:31.307Z,6.20
2023-03-18T11:30:01.535Z,9.00
2023-03-18T11:32:31.295Z,8.73
2023-03-18T11:35:01.640Z,9.57
2023-03-18T11:37:32.864Z,5.80
2023-03-18T11:40:25.871Z,6.03
2023-03-18T11:43:00.023Z,7.45
2023-03-18T11:45:45.184Z,9.70
2023-03-18T11:48:19.089Z,8.60
2023-03-18T11:51:12.109Z,7.60
2023-03-18T11:53:52.557Z,7.72
2023-03-18T11:56:27.492Z,8.10
2023-03-18T11:59:18.139Z,7.18
2023-03-18T12:01:56.796Z,7.88
2023-03-18T12:04:39.536Z,8.18
2023-03-18T12:07:32.839Z,7.22
2023-03-18T12:10:12.917Z,8.73
2023-03-18T12:12:52.163Z,6.78
2023-03-18T12:15:30.956Z,7.88
2023-03-18T12:18:09.107Z,7.40
2023-03-18T12:20:49.977Z,5.00
2023-03-18T12:23:45.181Z,6.82
2023-03-18T12:26:21.137Z,8.15
2023-03-18T12:29:12.541Z,6.95
2023-03-18T12:32:02.155Z,6.93
2023-03-18T12:34:52.863Z,6.18
2023-03-18T12:37:32.126Z,5.70
2023-03-18T12:40:27.161Z,6.60
2023-03-18T12:43:15.398Z,8.32
2023-03-18T12:45:46.356Z,7.50
2023-03-18T12:48:20.754Z,7.50
2023-03-18T12:50:57.605Z,20.23
2023-03-18T12:53:31.712Z,14.32
2023-03-18T12:56:04.068Z,5.13
2023-03-18T12:58:37.709Z,8.07
2023-03-18T13:01:10.516Z,6.60
2023-03-18T13:03:42.823Z,8.05
2023-03-18T13:06:17.282Z,11.82
2023-03-18T13:09:06.909Z,6.50
2023-03-18T13:12:09.579Z,5.35
2023-03-18T13:14:51.660Z,6.25
2023-03-18T13:17:26.485Z,6.53
2023-03-18T13:19:58.745Z,9.10
2023-03-18T13:22:52.564Z,6.53
2023-03-18T13:25:33.540Z,6.32
2023-03-18T13:28:22.968Z,7.50
2023-03-18T13:31:04.653Z,6.07
2023-03-18T13:34:00.422Z,8.15
2023-03-18T13:36:52.373Z,10.40
2023-03-18T13:40:14.339Z,7.35
2023-03-18T13:42:44.442Z,6.07
2023-03-18T13:45:25.407Z,5.57
2023-03-18T13:47:59.391Z,5.60
2023-03-18T13:50:34.066Z,8.07
2023-03-18T13:53:04.664Z,8.18
2023-03-18T13:55:35.109Z,12.65
2023-03-18T13:58:25.801Z,5.53
2023-03-18T14:01:15.356Z,6.60
2023-03-18T14:03:57.590Z,9.35
2023-03-18T14:06:40.091Z,21.40
2023-03-18T14:09:32.390Z,6.43
2023-03-18T14:12:18.818Z,9.13
2023-03-18T14:15:08.078Z,5.68
2023-03-18T14:17:47.733Z,6.57
2023-03-18T14:20:28.594Z,8.70
2023-03-18T14:22:58.923Z,9.45
2023-03-18T14:25:42.577Z,9.57
2023-03-18T14:28:20.617Z,6.35
2023-03-18T14:30:55.951Z,8.65
2023-03-18T14:33:50.816Z,5.25
2023-03-18T14:36:18.932Z,5.70
2023-03-18T14:38:50.753Z,5.13
2023-03-18T14:41:24.051Z,7.20
2023-03-18T14:44:04.146Z,8.02
2023-03-18T14:46:35.654Z,7.22
2023-03-18T14:49:04.631Z,6.00
2023-03-18T14:51:32.901Z,5.72
2023-03-18T14:54:05.912Z,7.47
2023-03-18T14:56:41.744Z,6.60
2023-03-18T14:59:14.993Z,6.25
2023-03-18T15:01:48.053Z,10.23
2023-03-18T15:04:20.414Z,7.70
2023-03-18T15:06:48.924Z,5.32
2023-03-18T15:09:20.880Z,11.32
2023-03-18T15:11:50.494Z,10.35
2023-03-18T15:14:21.725Z,10.70
2023-03-18T15:16:54.731Z,6.47
2023-03-18T15:19:23.724Z,6.32
2023-03-18T15:21:52.274Z,6.35
2023-03-18T15:24:23.722Z,5.72
2023-03-18T15:27:00.196Z,5.35
2023-03-18T15:29:31.432Z,6.13
2023-03-18T15:32:17.318Z,10.65
2023-03-18T15:34:47.674Z,4.88
2023-03-18T15:37:39.583Z,11.27
2023-03-18T15:40:29.800Z,7.35
2023-03-18T15:43:05.070Z,8.10
2023-03-18T15:45:34.118Z,13.85
2023-03-18T15:48:08.356Z,10.52
2023-03-18T15:50:37.250Z,7.22
2023-03-18T15:53:18.834Z,5.93
2023-03-18T15:55:52.831Z,8.57
2023-03-18T15:58:28.077Z,10.30
2023-03-18T16:00:57.839Z,9.88
2023-03-18T16:03:30.628Z,8.20
2023-03-18T16:06:00.561Z,6.38
2023-03-18T16:08:29.512Z,8.10
2023-03-18T16:11:02.485Z,8.18
2023-03-18T16:13:34.760Z,10.98
2023-03-18T16:16:03.607Z,5.85
2023-03-18T16:18:32.575Z,8.60
2023-03-18T16:21:04.374Z,8.20
2023-03-18T16:23:32.461Z,6.47
2023-03-18T16:26:00.564Z,5.03
2023-03-18T16:28:29.060Z,9.30
2023-03-18T16:30:58.496Z,7.80
2023-03-18T16:33:26.710Z,9.82
2023-03-18T16:35:58.534Z,6.10
2023-03-18T16:38:28.409Z,7.72
2023-03-18T16:40:57.403Z,6.53
2023-03-18T16:43:28.207Z,6.82
2023-03-18T16:46:01.245Z,3.53
2023-03-18T16:48:29.477Z,5.88
2023-03-18T16:51:00.393Z,4.65
2023-03-18T16:53:31.517Z,5.13
2023-03-18T16:56:02.979Z,6.45
2023-03-18T16:58:35.035Z,6.50
2023-03-18T17:01:07.255Z,7.03
2023-03-18T17:03:36.282Z,5.70
2023-03-18T17:06:06.501Z,7.13
2023-03-18T17:08:34.545Z,6.13
2023-03-18T17:11:04.885Z,8.13
2023-03-18T17:13:37.298Z,6.65
2023-03-18T17:16:15.290Z,6.75
2023-03-18T17:18:43.276Z,8.35
2023-03-18T17:21:12.477Z,5.03
2023-03-18T17:23:41.709Z,10.38
2023-03-18T17:26:15.817Z,8.82
2023-03-18T17:28:46.677Z,7.40
2023-03-18T17:31:16.898Z,10.00
2023-03-18T17:33:44.981Z,9.25
2023-03-18T17:36:12.935Z,12.65
2023-03-18T17:38:41.048Z,17.70
2023-03-18T17:41:17.274Z,10.70
2023-03-18T17:43:45.393Z,6.90
2023-03-18T17:46:13.466Z,9.50
2023-03-18T17:48:43.762Z,10.63
2023-03-18T17:51:15.469Z,16.25
2023-03-18T17:53:45.689Z,15.13
2023-03-18T17:56:15.778Z,11.50
2023-03-18T17:58:45.827Z,8.18
2023-03-18T18:01:17.011Z,10.50
2023-03-18T18:03:47.418Z,20.98
2023-03-18T18:06:18.749Z,9.40
2023-03-18T18:08:47.041Z,9.15
2023-03-18T18:11:20.496Z,15.82
2023-03-18T18:13:48.774Z,12.70
2023-03-18T18:16:17.293Z,8.90
2023-03-18T18:18:49.665Z,14.05
2023-03-18T18:21:20.427Z,14.27
2023-03-18T18:23:48.766Z,13.98
2023-03-18T18:26:18.536Z,11.43
2023-03-18T18:28:48.303Z,14.73
2023-03-18T18:31:19.282Z,14.20
2023-03-18T18:33:50.427Z,12.80
2023-03-18T18:36:18.702Z,13.70
2023-03-18T18:38:46.856Z,14.63
2023-03-18T18:41:15.199Z,16.77
2023-03-18T18:43:43.249Z,37.67
2023-03-18T18:46:14.769Z,17.90
2023-03-18T18:48:45.068Z,12.07
2023-03-18T18:51:19.306Z,9.48
2023-03-18T18:53:47.861Z,12.93
2023-03-18T18:56:19.753Z,12.40
2023-03-18T18:58:48.994Z,14.07
2023-03-18T19:01:17.178Z,12.43
2023-03-18T19:03:45.411Z,20.38
2023-03-18T19:06:26.650Z,22.05
2023-03-18T19:08:55.934Z,12.63
2023-03-18T19:11:25.000Z,14.88
2023-03-18T19:13:53.641Z,14.73
2023-03-18T19:16:29.364Z,13.23
2023-03-18T19:18:57.885Z,15.30
2023-03-18T19:21:27.458Z,15.98
2023-03-18T19:23:55.441Z,22.80
2023-03-18T19:26:23.500Z,12.60
2023-03-18T19:29:01.341Z,11.18
2023-03-18T19:31:34.996Z,12.15
2023-03-18T19:34:03.695Z,13.77
2023-03-18T19:36:38.604Z,15.98
2023-03-18T19:39:08.143Z,15.18
2023-03-18T19:41:36.189Z,17.63
2023-03-18T19:44:12.124Z,20.48
2023-03-18T19:46:41.236Z,19.58
2023-03-18T19:49:16.867Z,22.20
2023-03-18T19:51:46.908Z,24.02
2023-03-18T19:54:27.137Z,22.08
2023-03-18T19:56:57.321Z,23.80
2023-03-18T19:59:31.631Z,19.58
2023-03-18T20:02:12.601Z,24.55
2023-03-18T20:04:41.460Z,18.50
2023-03-18T20:07:11.010Z,17.23
2023-03-18T20:09:39.474Z,13.23
2023-03-18T20:12:15.699Z,15.80
2023-03-18T20:14:43.673Z,11.93
2023-03-18T20:17:30.685Z,12.88
2023-03-18T20:19:59.025Z,11.10
2023-03-18T20:22:31.634Z,12.68
2023-03-18T20:25:00.520Z,10.35
2023-03-18T20:27:29.121Z,14.57
2023-03-18T20:29:57.233Z,14.02
2023-03-18T20:32:25.446Z,14.15
2023-03-18T20:34:53.598Z,11.40
2023-03-18T20:37:26.565Z,11.13
2023-03-18T20:39:56.543Z,10.13
2023-03-18T20:42:24.639Z,11.40
2023-03-18T20:44:52.725Z,8.82
2023-03-18T20:47:21.213Z,9.20
2023-03-18T20:49:49.284Z,10.70
2023-03-18T20:52:25.925Z,10.45
2023-03-18T20:54:56.743Z,12.55
2023-03-18T20:57:25.112Z,12.77
2023-03-18T20:59:53.326Z,10.13
2023-03-18T21:02:30.606Z,10.63
2023-03-18T21:04:59.906Z,11.40
2023-03-18T21:07:28.487Z,10.75
2023-03-18T21:09:57.880Z,11.00
2023-03-18T21:12:26.232Z,14.20
2023-03-18T21:14:54.458Z,13.32
2023-03-18T21:17:24.268Z,11.85
2023-03-18T21:19:54.283Z,19.58
2023-03-18T21:22:24.508Z,14.60
2023-03-18T21:24:52.469Z,12.13
2023-03-18T21:27:23.554Z,12.45
2023-03-18T21:29:52.396Z,16.25
2023-03-18T21:32:26.063Z,23.50
2023-03-18T21:34:55.045Z,16.77
2023-03-18T21:37:25.512Z,14.02
2023-03-18T21:39:54.314Z,17.50
2023-03-18T21:42:27.248Z,17.60
2023-03-18T21:44:56.455Z,18.67
2023-03-18T21:47:26.727Z,11.82
2023-03-18T21:49:55.048Z,20.08
2023-03-18T21:52:29.315Z,19.50
2023-03-18T21:54:57.536Z,17.45
2023-03-18T21:57:28.004Z,14.00
2023-03-18T21:59:56.307Z,16.05
2023-03-18T22:02:29.604Z,16.13
2023-03-18T22:05:00.953Z,12.03
2023-03-18T22:07:31.551Z,16.43
2023-03-18T22:10:00.727Z,10.63
2023-03-18T22:12:31.221Z,13.63
2023-03-18T22:15:00.731Z,15.67
2023-03-18T22:17:30.042Z,17.77
2023-03-18T22:20:00.197Z,15.57
2023-03-18T22:22:31.187Z,16.30
2023-03-18T22:24:59.245Z,15.37
2023-03-18T22:27:30.753Z,10.00
2023-03-18T22:30:00.420Z,16.43
2023-03-18T22:32:37.606Z,17.40
2023-03-18T22:35:08.690Z,10.90
2023-03-18T22:37:36.936Z,11.53
2023-03-18T22:40:05.525Z,11.70
2023-03-18T22:42:34.978Z,10.33
2023-03-18T22:45:03.039Z,13.33
2023-03-18T22:47:31.139Z,15.33
2023-03-18T22:49:59.173Z,12.10
2023-03-18T22:52:30.297Z,13.90
2023-03-18T22:55:01.049Z,14.60
2023-03-18T22:57:29.938Z,16.43
2023-03-18T22:59:59.333Z,12.67
2023-03-18T23:02:28.668Z,10.23
2023-03-18T23:04:57.413Z,13.10
2023-03-18T23:07:28.931Z,12.13
2023-03-18T23:09:58.977Z,18.70
2023-03-18T23:12:30.192Z,13.80
2023-03-18T23:15:00.389Z,11.63
2023-03-18T23:17:29.741Z,12.98
2023-03-18T23:19:57.994Z,14.77
2023-03-18T23:22:28.147Z,10.50
2023-03-18T23:24:56.490Z,15.37
2023-03-18T23:27:25.834Z,11.03
2023-03-18T23:29:54.527Z,14.17
2023-03-18T23:32:24.948Z,12.40
2023-03-18T23:34:53.107Z,13.60
2023-03-18T23:37:21.918Z,12.83
2023-03-18T23:39:49.953Z,14.53
2023-03-18T23:42:20.127Z,13.97
2023-03-18T23:44:48.211Z,13.03
2023-03-18T23:47:16.961Z,12.57
2023-03-18T23:49:46.349Z,13.63
2023-03-18T23:52:16.396Z,18.03
2023-03-18T23:54:44.495Z,14.00
2023-03-18T23:57:13.413Z,14.33
2023-03-18T23:59:41.885Z,12.40
